Time;durP1;ratioP1;P1;durP2;ratioP2;P2;SDS_P1;SDS_P2;PMS_P1;PMS_P2;Temp;Humidity;BMP_temperature;BMP_pressure;BME280_temperature;BME280_humidity;BME280_pressure;Samples;Min_cycle;Max_cycle;Signal;HPM_P1;HPM_P2
2023/12/26 00:00:35;;;;;;;8.15;5.07;;;23.60;53.20;;;;;;6159512;28;82551;-52
2023/12/26 00:03:35;;;;;;;9.07;5.45;;;23.60;53.20;;;;;;6158800;28;81513;-51
2023/12/26 00:06:36;;;;;;;8.60;5.78;;;23.60;53.10;;;;;;6152533;28;81330;-51
2023/12/26 00:09:37;;;;;;;7.55;4.75;;;23.50;52.90;;;;;;6153228;28;81108;-52
2023/12/26 00:12:38;;;;;;;6.75;4.93;;;23.50;53.00;;;;;;6155479;28;81289;-53
2023/12/26 00:15:38;;;;;;;8.25;5.65;;;23.50;53.00;;;;;;6163985;28;81459;-55
2023/12/26 00:18:39;;;;;;;8.05;5.65;;;23.50;53.00;;;;;;6150034;28;80922;-61
2023/12/26 00:21:39;;;;;;;7.32;5.30;;;23.50;53.10;;;;;;6153477;28;81026;-61
2023/12/26 00:24:40;;;;;;;7.28;5.63;;;23.50;53.00;;;;;;6157478;28;82082;-62
2023/12/26 00:27:42;;;;;;;8.10;5.78;;;23.50;52.90;;;;;;6163946;28;80965;-61
2023/12/26 00:30:42;;;;;;;6.70;4.93;;;23.50;52.80;;;;;;6152473;28;80736;-61
2023/12/26 00:33:43;;;;;;;6.93;5.20;;;23.50;52.80;;;;;;6154935;28;81960;-61
2023/12/26 00:36:43;;;;;;;7.18;5.55;;;23.50;52.80;;;;;;6149872;28;80995;-57
2023/12/26 00:39:45;;;;;;;7.90;4.68;;;23.50;52.70;;;;;;6160449;28;82002;-56
2023/12/26 00:42:46;;;;;;;8.63;6.25;;;23.50;52.70;;;;;;6163830;28;81973;-56
2023/12/26 00:45:46;;;;;;;6.22;5.05;;;23.50;52.60;;;;;;6154609;28;82715;-56
2023/12/26 00:48:47;;;;;;;8.93;6.32;;;23.50;52.60;;;;;;6153572;28;82611;-59
2023/12/26 00:51:47;;;;;;;11.35;6.30;;;23.50;52.80;;;;;;6161536;28;80994;-56
2023/12/26 00:54:48;;;;;;;9.00;5.63;;;23.50;53.00;;;;;;6159113;28;80794;-48
2023/12/26 00:57:48;;;;;;;8.05;5.68;;;23.50;53.10;;;;;;6157898;28;80951;-51
2023/12/26 01:00:50;;;;;;;7.15;4.68;;;23.50;53.10;;;;;;6151199;28;82376;-49
2023/12/26 01:03:50;;;;;;;8.10;5.25;;;23.50;53.10;;;;;;6163130;28;82985;-49
2023/12/26 01:06:51;;;;;;;7.40;5.40;;;23.50;52.90;;;;;;6138713;28;81395;-51
2023/12/26 01:09:51;;;;;;;7.50;5.88;;;23.40;52.80;;;;;;6150053;28;83060;-47
2023/12/26 01:12:52;;;;;;;10.02;5.85;;;23.40;52.80;;;;;;6159607;28;81244;-52
2023/12/26 01:15:52;;;;;;;7.38;5.30;;;23.40;52.70;;;;;;6160184;28;82646;-56
2023/12/26 01:18:55;;;;;;;8.18;5.35;;;23.50;52.70;;;;;;6155295;28;83633;-54
2023/12/26 01:21:56;;;;;;;7.90;5.80;;;23.50;52.60;;;;;;6155002;28;81325;-55
2023/12/26 01:24:56;;;;;;;7.25;5.50;;;23.50;52.70;;;;;;6161534;28;83055;-55
2023/12/26 01:27:56;;;;;;;7.05;5.30;;;23.50;52.60;;;;;;6145828;28;83508;-54
2023/12/26 01:30:57;;;;;;;7.75;5.25;;;23.50;52.60;;;;;;6154566;28;80687;-57
2023/12/26 01:33:58;;;;;;;7.32;5.03;;;23.50;52.60;;;;;;6155392;28;81718;-57
2023/12/26 01:36:58;;;;;;;4.88;4.35;;;23.50;52.40;;;;;;6162890;28;81756;-57
2023/12/26 01:39:58;;;;;;;5.47;4.15;;;23.50;52.30;;;;;;6159979;28;80477;-55
2023/12/26 01:42:59;;;;;;;9.38;5.05;;;23.50;52.20;;;;;;6153721;28;82907;-57
2023/12/26 01:46:00;;;;;;;4.63;3.80;;;23.50;52.20;;;;;;6154246;28;82043;-57
2023/12/26 01:49:01;;;;;;;6.05;4.88;;;23.50;52.20;;;;;;6161609;28;82806;-55
2023/12/26 01:52:02;;;;;;;5.65;4.47;;;23.50;52.30;;;;;;6162390;28;80723;-49
2023/12/26 01:55:03;;;;;;;8.60;5.30;;;23.50;52.20;;;;;;6155044;28;83736;-47
2023/12/26 01:58:04;;;;;;;9.38;5.72;;;23.50;52.30;;;;;;6158621;28;81427;-45
2023/12/26 02:01:04;;;;;;;5.38;4.82;;;23.50;52.30;;;;;;6151017;28;88061;-53
2023/12/26 02:04:05;;;;;;;6.75;4.93;;;23.50;52.20;;;;;;6171905;28;80814;-47
2023/12/26 02:07:06;;;;;;;5.72;4.47;;;23.50;52.20;;;;;;6162601;28;83666;-50
2023/12/26 02:10:06;;;;;;;5.47;4.57;;;23.40;52.10;;;;;;6153003;28;83677;-57
2023/12/26 02:13:07;;;;;;;5.30;4.07;;;23.50;52.20;;;;;;6161426;28;82204;-53
2023/12/26 02:16:07;;;;;;;7.88;4.47;;;23.40;52.00;;;;;;6166403;28;82184;-52
2023/12/26 02:19:07;;;;;;;4.82;4.22;;;23.40;52.10;;;;;;6159672;28;80792;-55
2023/12/26 02:22:08;;;;;;;6.18;4.53;;;23.40;52.10;;;;;;6172694;28;81741;-56
2023/12/26 02:25:09;;;;;;;5.63;4.40;;;23.40;52.10;;;;;;6175088;28;81667;-56
2023/12/26 02:28:09;;;;;;;6.10;4.20;;;23.40;52.10;;;;;;6173955;28;83075;-55
2023/12/26 02:31:10;;;;;;;5.82;5.07;;;23.40;52.10;;;;;;6175336;28;80964;-56
2023/12/26 02:34:10;;;;;;;6.78;5.03;;;23.40;52.30;;;;;;6176498;28;80953;-57
2023/12/26 02:37:11;;;;;;;4.82;4.32;;;23.40;52.40;;;;;;6174686;28;82101;-57
2023/12/26 02:40:11;;;;;;;6.55;4.75;;;23.40;52.30;;;;;;6175173;28;80392;-53
2023/12/26 02:43:12;;;;;;;5.20;4.45;;;23.40;52.40;;;;;;6175738;28;80833;-53
2023/12/26 02:46:12;;;;;;;6.05;4.60;;;23.40;52.20;;;;;;6175764;28;81646;-52
2023/12/26 02:49:12;;;;;;;6.22;4.88;;;23.40;52.20;;;;;;6175225;28;80467;-54
2023/12/26 02:52:13;;;;;;;6.20;4.68;;;23.40;52.10;;;;;;6176664;28;80542;-57
2023/12/26 02:55:14;;;;;;;5.93;4.47;;;23.40;52.20;;;;;;6175870;28;81750;-56
2023/12/26 02:58:14;;;;;;;6.55;4.63;;;23.40;52.00;;;;;;6174965;28;80988;-55
2023/12/26 03:01:15;;;;;;;5.70;4.47;;;23.40;51.90;;;;;;6172775;28;82235;-57
2023/12/26 03:04:15;;;;;;;5.13;4.38;;;23.40;51.90;;;;;;6178684;28;83425;-46
2023/12/26 03:07:15;;;;;;;4.78;4.30;;;23.40;51.80;;;;;;6169286;28;80540;-48
2023/12/26 03:10:16;;;;;;;4.43;3.53;;;23.40;51.80;;;;;;6162145;28;82046;-49
2023/12/26 03:13:16;;;;;;;5.00;4.45;;;23.40;51.70;;;;;;6183182;28;80744;-46
2023/12/26 03:16:17;;;;;;;5.72;4.30;;;23.40;51.70;;;;;;6182041;28;83096;-46
2023/12/26 03:19:17;;;;;;;4.95;4.18;;;23.40;51.60;;;;;;6182207;28;82239;-47
2023/12/26 03:22:19;;;;;;;4.50;3.88;;;23.40;51.60;;;;;;6182890;28;80672;-46
2023/12/26 03:25:19;;;;;;;4.90;4.38;;;23.40;51.60;;;;;;6180424;28;83417;-48
2023/12/26 03:28:20;;;;;;;6.45;5.05;;;23.40;51.70;;;;;;6179970;28;81775;-48
2023/12/26 03:31:20;;;;;;;6.80;4.47;;;23.30;51.50;;;;;;6179436;28;81739;-46
2023/12/26 03:34:21;;;;;;;5.97;4.40;;;23.40;51.50;;;;;;6178836;28;80548;-49
2023/12/26 03:37:23;;;;;;;4.60;3.83;;;23.40;51.50;;;;;;6170417;28;82108;-50
2023/12/26 03:40:23;;;;;;;5.32;4.18;;;23.40;51.60;;;;;;6179235;28;83927;-48
2023/12/26 03:43:25;;;;;;;6.18;4.40;;;23.40;51.50;;;;;;6180903;28;82407;-47
2023/12/26 03:46:25;;;;;;;6.32;4.43;;;23.40;51.50;;;;;;6181058;28;83244;-48
2023/12/26 03:49:26;;;;;;;4.80;4.30;;;23.40;51.50;;;;;;6178865;28;80864;-49
2023/12/26 03:52:27;;;;;;;4.05;3.35;;;23.40;51.60;;;;;;6179817;28;83431;-48
2023/12/26 03:55:28;;;;;;;4.60;3.35;;;23.40;51.30;;;;;;6180294;28;83390;-47
2023/12/26 03:58:28;;;;;;;3.17;2.60;;;23.30;51.40;;;;;;6181781;28;83698;-47
2023/12/26 04:01:29;;;;;;;3.88;3.40;;;23.30;51.30;;;;;;6171522;28;80661;-47
2023/12/26 04:04:31;;;;;;;5.28;3.65;;;23.30;51.30;;;;;;6180482;28;82518;-48
2023/12/26 04:07:31;;;;;;;4.38;3.92;;;23.30;51.30;;;;;;6167761;28;81743;-49
2023/12/26 04:10:32;;;;;;;5.13;4.07;;;23.30;51.30;;;;;;6172817;28;81290;-47
2023/12/26 04:13:32;;;;;;;3.97;3.38;;;23.30;51.30;;;;;;6176174;28;89685;-46
2023/12/26 04:16:33;;;;;;;4.70;3.67;;;23.30;51.10;;;;;;6177893;28;82516;-58
2023/12/26 04:19:33;;;;;;;4.10;3.70;;;23.30;51.00;;;;;;6165531;28;82300;-54
2023/12/26 04:22:34;;;;;;;3.90;3.35;;;23.30;51.00;;;;;;6177994;28;81042;-55
2023/12/26 04:25:34;;;;;;;4.55;3.38;;;23.30;50.70;;;;;;6175710;28;83404;-57
2023/12/26 04:28:36;;;;;;;3.08;2.78;;;23.30;50.70;;;;;;6173490;28;87687;-56
2023/12/26 04:31:36;;;;;;;3.63;3.33;;;23.40;50.60;;;;;;6176529;28;83204;-57
2023/12/26 04:34:37;;;;;;;2.97;2.60;;;23.40;50.50;;;;;;6162499;28;83167;-55
2023/12/26 04:37:38;;;;;;;2.83;2.50;;;23.40;50.30;;;;;;6177430;28;83700;-52
2023/12/26 04:40:38;;;;;;;3.45;2.90;;;23.50;50.20;;;;;;6175905;28;83633;-50
2023/12/26 04:43:39;;;;;;;2.78;2.50;;;23.50;50.20;;;;;;6177851;28;83387;-48
2023/12/26 04:46:39;;;;;;;3.72;2.72;;;23.50;50.00;;;;;;6166579;28;83381;-50
2023/12/26 04:49:40;;;;;;;2.50;2.30;;;23.50;50.00;;;;;;6160816;28;80323;-50
2023/12/26 04:52:40;;;;;;;3.05;2.75;;;23.50;49.90;;;;;;6167336;28;81607;-47
2023/12/26 04:55:41;;;;;;;3.00;2.30;;;23.50;49.70;;;;;;6170467;28;83363;-52
2023/12/26 04:58:42;;;;;;;3.97;2.38;;;23.50;49.70;;;;;;6171343;28;81458;-54
2023/12/26 05:01:42;;;;;;;3.00;2.42;;;23.50;49.60;;;;;;6177293;28;83441;-51
2023/12/26 05:04:43;;;;;;;3.13;2.78;;;23.50;49.80;;;;;;6156656;28;80793;-52
2023/12/26 05:07:44;;;;;;;3.60;2.53;;;23.50;49.70;;;;;;6172697;28;83391;-51
2023/12/26 05:10:44;;;;;;;4.35;3.00;;;23.60;49.80;;;;;;6151213;28;83818;-54
2023/12/26 05:13:45;;;;;;;4.68;2.78;;;23.60;49.60;;;;;;6160076;28;82334;-59
2023/12/26 05:16:48;;;;;;;2.70;2.40;;;23.50;49.60;;;;;;6177028;28;81601;-54
2023/12/26 05:19:49;;;;;;;2.67;2.40;;;23.60;49.70;;;;;;6176284;28;80495;-57
2023/12/26 05:22:50;;;;;;;2.92;2.35;;;23.60;49.60;;;;;;6175262;28;83240;-55
2023/12/26 05:25:51;;;;;;;4.88;2.35;;;23.60;49.60;;;;;;6172763;28;83422;-56
2023/12/26 05:28:51;;;;;;;3.80;2.58;;;23.60;49.60;;;;;;6172058;28;83864;-55
2023/12/26 05:31:52;;;;;;;2.58;2.30;;;23.60;49.60;;;;;;6169830;28;82883;-51
2023/12/26 05:34:55;;;;;;;3.13;2.45;;;23.60;49.60;;;;;;6172180;28;82461;-53
2023/12/26 05:37:56;;;;;;;3.35;2.38;;;23.60;49.40;;;;;;6171694;28;81775;-52
2023/12/26 05:40:57;;;;;;;3.40;2.58;;;23.60;49.60;;;;;;6170389;28;83503;-55
2023/12/26 05:43:58;;;;;;;2.83;2.20;;;23.60;49.70;;;;;;6189675;28;81903;-51
2023/12/26 05:47:01;;;;;;;2.80;2.50;;;23.60;49.40;;;;;;6173085;28;83194;-54
2023/12/26 05:50:03;;;;;;;3.90;2.20;;;23.60;49.50;;;;;;6173026;28;83362;-58
2023/12/26 05:53:03;;;;;;;5.38;2.40;;;23.60;49.60;;;;;;6174116;28;83579;-58
2023/12/26 05:56:04;;;;;;;2.67;2.47;;;23.60;49.70;;;;;;6171807;28;82895;-59
2023/12/26 05:59:04;;;;;;;2.50;2.30;;;23.60;49.60;;;;;;6173362;28;81022;-60
2023/12/26 06:02:05;;;;;;;4.18;2.03;;;23.60;49.60;;;;;;6174106;28;81889;-60
2023/12/26 06:05:06;;;;;;;4.75;2.25;;;23.60;49.60;;;;;;6187721;28;83360;-59
2023/12/26 06:08:07;;;;;;;3.08;2.35;;;23.60;49.50;;;;;;6168563;28;85700;-59
2023/12/26 06:11:08;;;;;;;3.08;2.53;;;23.60;49.70;;;;;;6170756;28;83568;-59
2023/12/26 06:14:08;;;;;;;3.10;2.83;;;23.60;49.70;;;;;;6162315;28;80436;-59
2023/12/26 06:17:09;;;;;;;3.40;2.65;;;23.60;49.90;;;;;;6137889;28;80883;-60
2023/12/26 06:20:10;;;;;;;2.53;2.13;;;23.60;49.80;;;;;;6162385;28;83459;-58
2023/12/26 06:23:10;;;;;;;2.80;2.53;;;23.60;50.00;;;;;;6155001;28;89236;-58
2023/12/26 06:26:11;;;;;;;3.83;2.58;;;23.60;50.00;;;;;;6156398;28;80914;-52
2023/12/26 06:29:12;;;;;;;3.38;2.78;;;23.60;50.00;;;;;;6183973;28;83501;-48
2023/12/26 06:32:13;;;;;;;3.42;3.13;;;23.60;50.10;;;;;;6168139;28;83457;-50
2023/12/26 06:35:13;;;;;;;2.85;2.55;;;23.60;50.10;;;;;;6175031;28;82745;-50
2023/12/26 06:38:15;;;;;;;3.60;2.40;;;23.60;50.30;;;;;;6167899;28;83678;-52
2023/12/26 06:41:15;;;;;;;2.70;2.50;;;23.50;50.30;;;;;;6169982;28;80827;-51
2023/12/26 06:44:16;;;;;;;4.43;2.67;;;23.50;50.10;;;;;;6170505;28;83033;-53
2023/12/26 06:47:16;;;;;;;4.45;2.83;;;23.60;50.20;;;;;;6170741;28;83193;-49
2023/12/26 06:50:17;;;;;;;5.38;2.63;;;23.60;50.30;;;;;;6169991;28;83571;-55
2023/12/26 06:53:17;;;;;;;9.25;3.33;;;23.60;50.00;;;;;;6171557;28;81640;-56
2023/12/26 06:56:18;;;;;;;4.63;3.10;;;23.50;50.20;;;;;;6165308;28;83801;-55
2023/12/26 06:59:19;;;;;;;5.32;2.95;;;23.50;50.60;;;;;;6170072;28;83859;-56
2023/12/26 07:02:20;;;;;;;4.88;3.88;;;23.50;50.60;;;;;;6170366;28;82033;-54
2023/12/26 07:05:20;;;;;;;4.18;3.72;;;23.60;50.70;;;;;;6172329;28;83656;-57
2023/12/26 07:08:21;;;;;;;4.50;3.38;;;23.60;50.80;;;;;;6155458;28;82403;-55
2023/12/26 07:11:21;;;;;;;4.03;3.60;;;23.60;51.10;;;;;;6173614;28;81664;-56
2023/12/26 07:14:22;;;;;;;6.10;3.20;;;23.60;51.50;;;;;;6173282;28;82114;-55
2023/12/26 07:17:22;;;;;;;5.32;3.10;;;23.60;51.60;;;;;;6168240;28;80778;-57
2023/12/26 07:20:23;;;;;;;3.88;2.80;;;23.60;51.70;;;;;;6156647;28;80941;-56
2023/12/26 07:23:23;;;;;;;5.13;2.63;;;23.60;51.70;;;;;;6172489;28;83630;-50
2023/12/26 07:26:24;;;;;;;2.90;2.50;;;23.50;51.10;;;;;;6165175;28;80478;-50
2023/12/26 07:29:27;;;;;;;3.92;1.42;;;23.50;50.80;;;;;;6172975;28;80887;-51
2023/12/26 07:32:27;;;;;;;2.70;1.50;;;23.50;49.80;;;;;;6170875;28;80349;-48
2023/12/26 07:35:29;;;;;;;2.03;1.80;;;23.40;49.40;;;;;;6171776;28;80764;-48
2023/12/26 07:38:29;;;;;;;1.83;1.60;;;23.40;50.10;;;;;;6164437;28;80683;-53
2023/12/26 07:41:30;;;;;;;1.95;1.27;;;23.30;48.80;;;;;;6173500;28;80595;-56
2023/12/26 07:44:30;;;;;;;2.08;1.15;;;23.30;48.50;;;;;;6174424;28;80731;-57
2023/12/26 07:47:31;;;;;;;1.85;1.30;;;23.30;48.70;;;;;;6154159;28;86330;-56
2023/12/26 07:50:31;;;;;;;1.58;1.48;;;23.30;48.80;;;;;;6130165;28;82976;-57
2023/12/26 07:53:32;;;;;;;2.75;1.20;;;23.30;48.90;;;;;;6133593;28;82179;-57
2023/12/26 07:56:33;;;;;;;2.03;1.38;;;23.30;48.90;;;;;;6137547;28;81685;-57
2023/12/26 07:59:33;;;;;;;2.72;1.30;;;23.30;48.60;;;;;;6140785;28;80863;-59
2023/12/26 08:02:34;;;;;;;6.50;1.33;;;23.30;48.60;;;;;;6144899;28;81235;-59
2023/12/26 08:05:34;;;;;;;2.05;1.58;;;23.30;48.80;;;;;;6129057;28;82325;-59
2023/12/26 08:08:35;;;;;;;146.02;60.55;;;23.30;49.00;;;;;;6134644;28;80911;-60
2023/12/26 08:11:35;;;;;;;155.35;66.10;;;23.30;49.00;;;;;;6129969;28;83859;-58
2023/12/26 08:14:35;;;;;;;261.05;115.15;;;23.30;49.20;;;;;;6135740;28;84041;-57
2023/12/26 08:17:36;;;;;;;392.35;168.98;;;23.30;49.40;;;;;;6131400;28;87604;-59
2023/12/26 08:20:37;;;;;;;486.15;220.85;;;23.30;49.30;;;;;;6135138;28;87258;-59
2023/12/26 08:23:37;;;;;;;762.88;373.42;;;23.30;49.30;;;;;;6135438;28;86544;-59
2023/12/26 08:26:38;;;;;;;635.10;284.35;;;23.40;49.40;;;;;;6133809;28;87728;-56
2023/12/26 08:29:39;;;;;;;546.20;239.57;;;23.40;49.20;;;;;;6123781;28;86680;-58
2023/12/26 08:32:39;;;;;;;498.42;207.80;;;23.30;49.00;;;;;;6127790;28;86545;-59
2023/12/26 08:35:40;;;;;;;446.73;183.85;;;23.40;49.30;;;;;;6141907;28;86331;-57
2023/12/26 08:38:41;;;;;;;338.48;154.90;;;23.40;49.00;;;;;;6127932;28;87083;-56
2023/12/26 08:41:41;;;;;;;269.30;115.45;;;23.40;48.80;;;;;;6124725;28;86802;-59
2023/12/26 08:44:42;;;;;;;251.88;115.45;;;23.40;48.80;;;;;;6133328;28;85885;-62
2023/12/26 08:47:42;;;;;;;236.98;103.88;;;23.50;48.90;;;;;;6133033;28;86282;-56
2023/12/26 08:50:43;;;;;;;203.52;89.82;;;23.50;48.80;;;;;;6130472;28;86444;-57
2023/12/26 08:53:43;;;;;;;177.13;77.78;;;23.50;48.60;;;;;;6130384;28;86079;-56
2023/12/26 08:56:44;;;;;;;143.25;67.90;;;23.50;48.50;;;;;;6128710;28;85472;-55
2023/12/26 08:59:44;;;;;;;130.63;56.13;;;23.50;48.40;;;;;;6125752;28;85783;-56
2023/12/26 09:02:45;;;;;;;113.75;50.50;;;23.40;48.20;;;;;;6129891;28;84430;-53
2023/12/26 09:05:45;;;;;;;100.80;43.08;;;23.50;48.20;;;;;;6132758;28;84562;-53
2023/12/26 09:08:46;;;;;;;84.88;39.95;;;23.50;48.10;;;;;;6139154;28;84130;-49
2023/12/26 09:11:46;;;;;;;80.85;35.00;;;23.50;48.00;;;;;;6127792;28;84390;-54
2023/12/26 09:14:47;;;;;;;71.75;31.23;;;23.60;48.10;;;;;;6133058;28;84278;-52
2023/12/26 09:17:47;;;;;;;60.35;28.70;;;23.60;48.10;;;;;;6147121;28;84463;-51
2023/12/26 09:20:48;;;;;;;53.45;25.30;;;23.60;48.40;;;;;;6131886;28;84916;-48
2023/12/26 09:23:48;;;;;;;50.15;21.15;;;23.60;48.60;;;;;;6133456;28;83957;-53
2023/12/26 09:26:49;;;;;;;51.42;19.40;;;23.60;48.60;;;;;;6134068;28;84170;-55
2023/12/26 09:29:50;;;;;;;39.10;16.85;;;23.70;48.80;;;;;;6125736;28;84347;-55
2023/12/26 09:32:50;;;;;;;31.77;12.70;;;23.70;48.70;;;;;;6138555;28;84193;-54
2023/12/26 09:35:51;;;;;;;26.63;11.27;;;23.70;48.60;;;;;;6131590;28;83816;-56
2023/12/26 09:38:51;;;;;;;21.38;9.15;;;23.80;48.40;;;;;;6135274;28;83927;-58
2023/12/26 09:41:52;;;;;;;16.17;8.38;;;23.80;48.10;;;;;;6133708;28;83548;-57
2023/12/26 09:44:53;;;;;;;15.07;6.97;;;23.80;47.80;;;;;;6138826;28;81720;-51
2023/12/26 09:47:54;;;;;;;13.13;6.10;;;24.00;47.60;;;;;;6135590;28;81717;-59
2023/12/26 09:50:54;;;;;;;12.48;5.95;;;23.90;47.60;;;;;;6135467;28;81105;-58
2023/12/26 09:53:55;;;;;;;11.02;5.63;;;24.00;47.80;;;;;;6141579;28;86655;-58
2023/12/26 09:56:56;;;;;;;10.02;5.00;;;24.10;47.90;;;;;;6156112;28;81196;-59
2023/12/26 09:59:56;;;;;;;7.88;5.07;;;24.10;47.90;;;;;;6175361;28;80407;-62
2023/12/26 10:02:57;;;;;;;8.10;4.18;;;24.10;47.70;;;;;;6177111;28;80641;-58
2023/12/26 10:05:58;;;;;;;8.35;3.60;;;24.10;47.60;;;;;;6170714;28;81527;-51
2023/12/26 10:09:00;;;;;;;7.20;4.07;;;24.10;47.70;;;;;;6166701;28;80708;-50
2023/12/26 10:12:01;;;;;;;7.63;3.50;;;24.10;47.80;;;;;;6169727;28;80967;-56
2023/12/26 10:15:02;;;;;;;5.25;3.35;;;24.10;48.10;;;;;;6175589;28;80480;-58
2023/12/26 10:18:03;;;;;;;9.68;3.08;;;24.10;48.20;;;;;;6175438;28;80601;-57
2023/12/26 10:21:03;;;;;;;3.58;2.45;;;24.10;48.30;;;;;;6173133;28;80533;-52
2023/12/26 10:24:04;;;;;;;10.00;2.45;;;24.10;48.20;;;;;;6168757;28;81877;-57
2023/12/26 10:27:04;;;;;;;5.05;2.63;;;24.10;48.20;;;;;;6167668;28;81072;-55
2023/12/26 10:30:05;;;;;;;6.28;2.88;;;24.00;48.10;;;;;;6160802;28;81020;-50
2023/12/26 10:33:05;;;;;;;5.20;2.40;;;24.10;48.30;;;;;;6153747;28;80411;-55
2023/12/26 10:36:06;;;;;;;7.85;2.40;;;24.00;48.30;;;;;;6182714;28;80150;-52
2023/12/26 10:39:06;;;;;;;5.80;1.88;;;24.00;49.20;;;;;;6171283;28;80422;-49
2023/12/26 10:42:08;;;;;;;7.55;2.95;;;24.00;48.80;;;;;;6173205;28;81963;-49
2023/12/26 10:45:09;;;;;;;9.27;4.30;;;24.00;48.90;;;;;;6171491;28;81456;-55
2023/12/26 10:48:09;;;;;;;26.92;6.68;;;24.00;49.20;;;;;;6174596;28;80497;-55
2023/12/26 10:51:10;;;;;;;45.30;12.32;;;24.00;49.50;;;;;;6172279;28;81520;-55
2023/12/26 10:54:10;;;;;;;69.13;18.30;;;24.00;50.00;;;;;;6149004;28;82837;-54
2023/12/26 10:57:11;;;;;;;109.85;28.40;;;24.00;50.20;;;;;;6149010;28;85109;-51
2023/12/26 11:00:11;;;;;;;111.93;27.30;;;24.00;51.00;;;;;;6154696;28;83376;-51
2023/12/26 11:03:12;;;;;;;143.68;38.65;;;24.00;50.80;;;;;;6170430;28;83912;-60
2023/12/26 11:06:12;;;;;;;275.02;68.75;;;24.00;51.40;;;;;;6166954;28;83071;-58
2023/12/26 11:09:13;;;;;;;134.27;40.17;;;23.90;51.00;;;;;;6160926;28;83470;-60
2023/12/26 11:12:13;;;;;;;165.10;39.72;;;23.40;48.90;;;;;;6170487;28;83807;-59
2023/12/26 11:15:14;;;;;;;97.20;28.20;;;23.20;48.70;;;;;;6162654;28;83515;-59
2023/12/26 11:18:14;;;;;;;160.88;45.20;;;23.10;48.20;;;;;;6170906;28;83190;-57
2023/12/26 11:21:15;;;;;;;126.68;38.35;;;23.30;49.30;;;;;;6169401;28;84119;-58
2023/12/26 11:24:15;;;;;;;138.52;40.97;;;23.50;49.30;;;;;;6170700;28;83455;-58
2023/12/26 11:27:16;;;;;;;109.45;32.72;;;23.60;49.40;;;;;;6160836;28;85813;-56
2023/12/26 11:30:16;;;;;;;107.85;31.20;;;23.70;49.20;;;;;;6158022;28;83835;-56
2023/12/26 11:33:17;;;;;;;97.68;27.80;;;23.80;49.30;;;;;;6157467;28;83513;-58
2023/12/26 11:36:17;;;;;;;86.10;23.85;;;23.80;48.90;;;;;;6161218;28;83222;-58
2023/12/26 11:39:18;;;;;;;66.97;20.02;;;23.80;48.80;;;;;;6158043;28;84721;-59
2023/12/26 11:42:18;;;;;;;55.30;17.35;;;23.80;48.70;;;;;;6157895;28;83359;-52
2023/12/26 11:45:19;;;;;;;60.88;16.85;;;23.80;48.70;;;;;;6161820;28;82949;-55
2023/12/26 11:48:19;;;;;;;55.00;16.10;;;23.90;49.00;;;;;;6157997;28;84538;-58
2023/12/26 11:51:20;;;;;;;41.38;13.60;;;23.90;49.00;;;;;;6153612;28;84245;-57
2023/12/26 11:54:20;;;;;;;47.75;12.68;;;23.90;48.60;;;;;;6152020;28;83328;-55
2023/12/26 11:57:21;;;;;;;33.58;11.38;;;23.80;48.90;;;;;;6159720;28;83618;-58
2023/12/26 12:00:21;;;;;;;26.35;9.40;;;23.90;48.90;;;;;;6168336;28;83065;-58
2023/12/26 12:03:22;;;;;;;30.75;9.68;;;23.80;48.70;;;;;;6174332;28;83504;-59
2023/12/26 12:06:22;;;;;;;36.05;9.20;;;23.80;48.90;;;;;;6165495;28;80560;-55
2023/12/26 12:09:23;;;;;;;26.60;7.95;;;23.80;48.80;;;;;;6154085;28;81596;-57
2023/12/26 12:12:23;;;;;;;19.05;6.30;;;23.80;48.70;;;;;;6153738;28;80940;-55
2023/12/26 12:15:24;;;;;;;27.77;6.60;;;23.70;48.30;;;;;;6160183;28;80520;-59
2023/12/26 12:18:24;;;;;;;23.30;5.90;;;23.70;48.20;;;;;;6167641;28;82205;-57
2023/12/26 12:21:25;;;;;;;20.83;5.85;;;23.70;48.80;;;;;;6169504;28;80582;-59
2023/12/26 12:24:25;;;;;;;14.85;5.15;;;23.60;50.20;;;;;;6173403;28;80860;-59
2023/12/26 12:27:26;;;;;;;17.48;4.82;;;23.70;50.90;;;;;;6174392;28;80780;-58
2023/12/26 12:30:26;;;;;;;12.18;4.57;;;23.60;52.80;;;;;;6173319;28;81002;-58
2023/12/26 12:33:27;;;;;;;9.45;4.20;;;23.70;53.40;;;;;;6177098;28;80783;-58
2023/12/26 12:36:27;;;;;;;14.20;3.75;;;23.70;55.20;;;;;;6173545;28;81620;-58
2023/12/26 12:39:28;;;;;;;10.30;4.45;;;23.70;55.50;;;;;;6169405;28;82605;-59
2023/12/26 12:42:28;;;;;;;15.57;3.72;;;23.70;57.00;;;;;;6161546;28;80441;-59
2023/12/26 12:45:29;;;;;;;11.10;3.72;;;23.70;57.90;;;;;;6177789;28;81431;-59
2023/12/26 12:48:29;;;;;;;10.07;3.40;;;23.70;58.00;;;;;;6164262;28;80377;-58
2023/12/26 12:51:30;;;;;;;8.40;3.65;;;23.70;58.40;;;;;;6173415;28;81499;-59
2023/12/26 12:54:30;;;;;;;5.68;2.88;;;23.70;59.70;;;;;;6153913;28;80876;-58
2023/12/26 12:57:31;;;;;;;9.48;2.40;;;23.70;59.00;;;;;;6171829;28;81127;-60
2023/12/26 13:00:31;;;;;;;8.80;2.75;;;23.70;58.80;;;;;;6152009;28;80779;-61
2023/12/26 13:03:32;;;;;;;11.20;2.30;;;23.60;57.80;;;;;;6156933;28;82649;-63
2023/12/26 13:06:33;;;;;;;5.95;2.50;;;23.60;56.80;;;;;;6142576;28;81085;-61
2023/12/26 13:09:34;;;;;;;6.60;2.13;;;23.50;56.00;;;;;;6151898;28;82203;-60
2023/12/26 13:12:34;;;;;;;6.57;2.15;;;23.50;55.70;;;;;;6155647;28;81169;-58
2023/12/26 13:15:35;;;;;;;6.40;2.00;;;23.40;55.60;;;;;;6148776;28;84657;-59
2023/12/26 13:18:35;;;;;;;5.90;2.50;;;23.40;54.60;;;;;;6142096;28;81699;-60
2023/12/26 13:21:36;;;;;;;3.83;1.75;;;23.40;54.90;;;;;;6145037;28;81924;-58
2023/12/26 13:24:36;;;;;;;2.72;1.65;;;23.30;55.20;;;;;;6161998;28;81270;-59
2023/12/26 13:27:37;;;;;;;5.85;1.92;;;23.30;55.70;;;;;;6148944;28;81004;-59
2023/12/26 13:30:37;;;;;;;4.75;1.60;;;23.30;55.40;;;;;;6150367;28;80921;-59
2023/12/26 13:33:38;;;;;;;2.25;1.33;;;23.30;55.60;;;;;;6154460;28;80855;-59
2023/12/26 13:36:38;;;;;;;3.33;1.52;;;23.30;55.30;;;;;;6156818;28;81600;-60
2023/12/26 13:39:39;;;;;;;2.80;1.70;;;23.20;54.50;;;;;;6141992;28;81609;-56
2023/12/26 13:42:39;;;;;;;4.43;1.77;;;23.30;54.40;;;;;;6155033;28;80560;-59
2023/12/26 13:45:39;;;;;;;3.10;1.35;;;23.20;54.40;;;;;;6151875;28;81346;-59
2023/12/26 13:48:40;;;;;;;2.80;1.50;;;23.20;54.70;;;;;;6151348;28;81225;-54
2023/12/26 13:51:41;;;;;;;3.22;1.30;;;23.20;55.10;;;;;;6156517;28;81046;-52
2023/12/26 13:54:41;;;;;;;2.15;1.27;;;23.20;54.80;;;;;;6157440;28;81120;-54
2023/12/26 13:57:42;;;;;;;2.70;1.65;;;23.20;53.90;;;;;;6156431;28;82525;-54
2023/12/26 14:00:42;;;;;;;1.63;1.30;;;23.30;53.60;;;;;;6156435;28;81635;-58
2023/12/26 14:03:50;;;;;;;3.70;1.48;;;23.30;52.90;;;;;;6154713;28;80934;-55
2023/12/26 14:06:51;;;;;;;2.47;1.60;;;23.30;52.70;;;;;;6148261;28;81058;-55
2023/12/26 14:09:52;;;;;;;3.40;1.75;;;23.30;52.10;;;;;;6153437;28;80668;-53
2023/12/26 14:12:53;;;;;;;2.72;1.20;;;23.30;51.80;;;;;;6151873;28;81334;-54
2023/12/26 14:15:53;;;;;;;2.28;1.35;;;23.30;51.40;;;;;;6152356;28;82375;-55
2023/12/26 14:18:54;;;;;;;2.30;1.05;;;23.30;51.20;;;;;;6154537;28;80543;-53
2023/12/26 14:21:54;;;;;;;1.40;1.10;;;23.30;50.90;;;;;;6160899;28;80958;-55
2023/12/26 14:24:55;;;;;;;1.45;1.10;;;23.30;50.70;;;;;;6157832;28;81491;-55
2023/12/26 14:27:55;;;;;;;2.72;1.58;;;23.30;51.00;;;;;;6152540;28;82461;-52
2023/12/26 14:30:56;;;;;;;2.55;1.63;;;23.30;51.40;;;;;;6155037;28;81665;-53
2023/12/26 14:33:56;;;;;;;1.55;1.20;;;23.40;51.90;;;;;;6154946;28;81029;-52
2023/12/26 14:36:57;;;;;;;1.85;1.30;;;23.40;52.40;;;;;;6163273;28;80977;-50
2023/12/26 14:39:57;;;;;;;2.10;1.20;;;23.50;52.90;;;;;;6165872;28;80838;-53
2023/12/26 14:42:58;;;;;;;2.92;1.58;;;23.50;53.40;;;;;;6175002;28;80743;-51
2023/12/26 14:45:58;;;;;;;2.55;1.10;;;23.50;53.90;;;;;;6163636;28;80683;-52
2023/12/26 14:48:59;;;;;;;2.20;1.05;;;23.50;54.10;;;;;;6165422;28;81158;-51
2023/12/26 14:51:59;;;;;;;3.65;1.85;;;23.50;54.40;;;;;;6171132;28;81047;-54
2023/12/26 14:55:00;;;;;;;1.92;1.38;;;23.50;54.50;;;;;;6173976;28;80787;-57
2023/12/26 14:58:00;;;;;;;1.92;1.40;;;23.60;55.10;;;;;;6175979;28;81539;-51
2023/12/26 15:01:00;;;;;;;2.45;1.50;;;23.60;55.00;;;;;;6172077;28;80879;-54
2023/12/26 15:04:01;;;;;;;1.63;1.25;;;23.60;55.20;;;;;;6171833;28;81322;-53
2023/12/26 15:07:03;;;;;;;5.22;2.95;;;23.60;55.40;;;;;;6161120;28;80649;-57
2023/12/26 15:10:04;;;;;;;69.55;34.08;;;23.60;55.50;;;;;;6161594;28;80644;-56
2023/12/26 15:13:04;;;;;;;124.90;58.50;;;23.60;55.70;;;;;;6171450;28;84128;-57
2023/12/26 15:16:05;;;;;;;176.68;84.80;;;23.60;55.70;;;;;;6165294;28;83336;-52
2023/12/26 15:19:06;;;;;;;173.90;87.57;;;23.70;55.80;;;;;;6165100;28;83041;-53
2023/12/26 15:22:06;;;;;;;201.93;100.00;;;23.70;55.80;;;;;;6163405;28;83326;-50
2023/12/26 15:25:07;;;;;;;232.50;111.40;;;23.70;56.10;;;;;;6148965;28;85724;-50
2023/12/26 15:28:07;;;;;;;237.05;117.82;;;23.70;56.00;;;;;;6164241;28;85587;-53
2023/12/26 15:31:08;;;;;;;256.17;124.75;;;23.70;56.10;;;;;;6159261;28;86630;-50